AXM404 WIEE-WMKK
Flight info
| Callsign | AXM404 |
|---|---|
| Flight time | 0h 43m |
| Altitude | 33000 |
| Route | OSNIS W22 PKU N633 SALAX SALAX3J |
| Aircraft | A20N/M-SDE2E3FGHIRWXY/LB1 |
Departure
| Time | 2026-05-07 14:05 |
|---|---|
| Airport | Minangkabau International Airport (WIEE) |
Arrival
| Time | 2026-05-07 14:49 |
|---|---|
| Airport | Kuala Lumpur International Airport (WMKK) |
| Time | Latitude | Longitude | Altitude | Speed | Heading |
|---|---|---|---|---|---|
| 2026-05-07 13:50 | -0.78673 | 100.28519 | 50 ft | 0 kts | 65° |
| 2026-05-07 13:57 | -0.78673 | 100.28518 | 49 ft | 0 kts | 65° |
| 2026-05-07 13:58 | -0.78678 | 100.28508 | 49 ft | 2 kts | 64° |
| 2026-05-07 13:58 | -0.78684 | 100.28494 | 49 ft | 2 kts | 65° |
| 2026-05-07 13:58 | -0.78691 | 100.28481 | 49 ft | 2 kts | 65° |
| 2026-05-07 13:58 | -0.78697 | 100.28467 | 49 ft | 2 kts | 65° |
| 2026-05-07 13:59 | -0.78704 | 100.28453 | 49 ft | 2 kts | 65° |
| 2026-05-07 13:59 | -0.78710 | 100.28439 | 50 ft | 1 kts | 78° |
| 2026-05-07 13:59 | -0.78707 | 100.28426 | 50 ft | 2 kts | 126° |
| 2026-05-07 13:59 | -0.78701 | 100.28419 | 50 ft | 0 kts | 153° |
| 2026-05-07 14:00 | -0.78693 | 100.28416 | 50 ft | 0 kts | 162° |
| 2026-05-07 14:01 | -0.78697 | 100.28418 | 50 ft | 1 kts | 161° |
| 2026-05-07 14:01 | -0.78713 | 100.28425 | 50 ft | 3 kts | 155° |
| 2026-05-07 14:02 | -0.78751 | 100.28442 | 50 ft | 8 kts | 154° |
| 2026-05-07 14:02 | -0.78821 | 100.28476 | 49 ft | 12 kts | 154° |
| 2026-05-07 14:02 | -0.78890 | 100.28463 | 47 ft | 11 kts | 234° |
| 2026-05-07 14:02 | -0.78929 | 100.28387 | 46 ft | 13 kts | 244° |
| 2026-05-07 14:03 | -0.78968 | 100.28299 | 45 ft | 14 kts | 246° |
| 2026-05-07 14:03 | -0.79029 | 100.28259 | 45 ft | 10 kts | 173° |
| 2026-05-07 14:03 | -0.79162 | 100.28295 | 45 ft | 27 kts | 159° |
| 2026-05-07 14:03 | -0.79365 | 100.28388 | 42 ft | 33 kts | 155° |
| 2026-05-07 14:04 | -0.79568 | 100.28480 | 41 ft | 31 kts | 154° |
| 2026-05-07 14:04 | -0.79725 | 100.28558 | 39 ft | 20 kts | 143° |
| 2026-05-07 14:04 | -0.79787 | 100.28623 | 40 ft | 4 kts | 184° |
| 2026-05-07 14:04 | -0.79799 | 100.28588 | 39 ft | 7 kts | 282° |
| 2026-05-07 14:05 | -0.79684 | 100.28539 | 39 ft | 45 kts | 339° |
| 2026-05-07 14:05 | -0.79149 | 100.28288 | 45 ft | 120 kts | 335° |
| 2026-05-07 14:05 | -0.78222 | 100.27854 | 140 ft | 167 kts | 334° |
| 2026-05-07 14:05 | -0.77171 | 100.27352 | 740 ft | 168 kts | 336° |
| 2026-05-07 14:06 | -0.76120 | 100.26878 | 1481 ft | 166 kts | 337° |
| 2026-05-07 14:06 | -0.75058 | 100.26403 | 2107 ft | 170 kts | 337° |
| 2026-05-07 14:06 | -0.73933 | 100.25900 | 2555 ft | 185 kts | 336° |
| 2026-05-07 14:06 | -0.72701 | 100.25343 | 2989 ft | 202 kts | 335° |
| 2026-05-07 14:07 | -0.71371 | 100.24738 | 3438 ft | 219 kts | 335° |
| 2026-05-07 14:07 | -0.69926 | 100.24077 | 3857 ft | 240 kts | 335° |
| 2026-05-07 14:07 | -0.68415 | 100.23216 | 4395 ft | 256 kts | 316° |
| 2026-05-07 14:07 | -0.67448 | 100.21780 | 5224 ft | 255 kts | 286° |
| 2026-05-07 14:08 | -0.67302 | 100.20062 | 6076 ft | 252 kts | 257° |
| 2026-05-07 14:08 | -0.68006 | 100.18503 | 6870 ft | 251 kts | 228° |
| 2026-05-07 14:08 | -0.69436 | 100.17522 | 7662 ft | 252 kts | 198° |
| 2026-05-07 14:08 | -0.71160 | 100.17290 | 8322 ft | 259 kts | 172° |
| 2026-05-07 14:09 | -0.72870 | 100.17973 | 8821 ft | 273 kts | 140° |
| 2026-05-07 14:09 | -0.74011 | 100.19501 | 9335 ft | 285 kts | 111° |
| 2026-05-07 14:09 | -0.74339 | 100.21451 | 9977 ft | 291 kts | 84° |
| 2026-05-07 14:09 | -0.73712 | 100.23409 | 10474 ft | 303 kts | 60° |
| 2026-05-07 14:10 | -0.72621 | 100.25258 | 10867 ft | 319 kts | 60° |
| 2026-05-07 14:10 | -0.71500 | 100.27196 | 11451 ft | 327 kts | 60° |
| 2026-05-07 14:10 | -0.70374 | 100.29166 | 12160 ft | 329 kts | 60° |
| 2026-05-07 14:10 | -0.69233 | 100.31170 | 12858 ft | 331 kts | 60° |
| 2026-05-07 14:11 | -0.68102 | 100.33162 | 13547 ft | 333 kts | 60° |
| 2026-05-07 14:11 | -0.66960 | 100.35173 | 14218 ft | 335 kts | 60° |
| 2026-05-07 14:11 | -0.65808 | 100.37204 | 14847 ft | 338 kts | 60° |
| 2026-05-07 14:11 | -0.64645 | 100.39255 | 15454 ft | 340 kts | 60° |
| 2026-05-07 14:12 | -0.63488 | 100.41299 | 16061 ft | 343 kts | 60° |
| 2026-05-07 14:12 | -0.62318 | 100.43366 | 16673 ft | 344 kts | 60° |
| 2026-05-07 14:12 | -0.61140 | 100.45443 | 17251 ft | 346 kts | 60° |
| 2026-05-07 14:12 | -0.59952 | 100.47540 | 17803 ft | 348 kts | 60° |
| 2026-05-07 14:13 | -0.58757 | 100.49648 | 18343 ft | 351 kts | 60° |
| 2026-05-07 14:13 | -0.57291 | 100.51634 | 18767 ft | 357 kts | 47° |
| 2026-05-07 14:13 | -0.55464 | 100.53334 | 18964 ft | 369 kts | 43° |
| 2026-05-07 14:13 | -0.53480 | 100.55064 | 19151 ft | 381 kts | 43° |
| 2026-05-07 14:14 | -0.51482 | 100.56825 | 19327 ft | 392 kts | 43° |
| 2026-05-07 14:14 | -0.49426 | 100.58672 | 19506 ft | 402 kts | 43° |
| 2026-05-07 14:14 | -0.47319 | 100.60592 | 19782 ft | 409 kts | 44° |
| 2026-05-07 14:14 | -0.45236 | 100.62505 | 20165 ft | 411 kts | 44° |
| 2026-05-07 14:15 | -0.43116 | 100.64462 | 20570 ft | 414 kts | 44° |
| 2026-05-07 14:15 | -0.41002 | 100.66424 | 20955 ft | 417 kts | 44° |
| 2026-05-07 14:15 | -0.38865 | 100.68421 | 21338 ft | 419 kts | 44° |
| 2026-05-07 14:15 | -0.36729 | 100.70418 | 21704 ft | 422 kts | 44° |
| 2026-05-07 14:16 | -0.34587 | 100.72417 | 22062 ft | 425 kts | 44° |
| 2026-05-07 14:16 | -0.32400 | 100.74458 | 22440 ft | 427 kts | 44° |
| 2026-05-07 14:16 | -0.30225 | 100.76485 | 22823 ft | 430 kts | 44° |
| 2026-05-07 14:16 | -0.28023 | 100.78538 | 23188 ft | 432 kts | 44° |
| 2026-05-07 14:17 | -0.25828 | 100.80582 | 23544 ft | 435 kts | 44° |
| 2026-05-07 14:17 | -0.23618 | 100.82639 | 23910 ft | 437 kts | 44° |
| 2026-05-07 14:17 | -0.21384 | 100.84719 | 24244 ft | 440 kts | 44° |
| 2026-05-07 14:17 | -0.19142 | 100.86807 | 24559 ft | 443 kts | 44° |
| 2026-05-07 14:18 | -0.16882 | 100.88910 | 24875 ft | 446 kts | 44° |
| 2026-05-07 14:18 | -0.14599 | 100.91035 | 25201 ft | 448 kts | 44° |
| 2026-05-07 14:18 | -0.12322 | 100.93154 | 25516 ft | 450 kts | 44° |
| 2026-05-07 14:18 | -0.10024 | 100.95293 | 25812 ft | 453 kts | 44° |
| 2026-05-07 14:19 | -0.07696 | 100.97460 | 26117 ft | 455 kts | 44° |
| 2026-05-07 14:19 | -0.05369 | 100.99625 | 26409 ft | 457 kts | 44° |
| 2026-05-07 14:19 | -0.03039 | 101.01794 | 26690 ft | 459 kts | 44° |
| 2026-05-07 14:19 | -0.00697 | 101.03973 | 26981 ft | 461 kts | 44° |
| 2026-05-07 14:20 | 0.01654 | 101.06162 | 27239 ft | 462 kts | 44° |
| 2026-05-07 14:20 | 0.03996 | 101.08344 | 27486 ft | 464 kts | 44° |
| 2026-05-07 14:20 | 0.06366 | 101.10551 | 27710 ft | 466 kts | 44° |
| 2026-05-07 14:20 | 0.08734 | 101.12754 | 27987 ft | 466 kts | 44° |
| 2026-05-07 14:21 | 0.11105 | 101.14958 | 28331 ft | 464 kts | 44° |
| 2026-05-07 14:21 | 0.13493 | 101.17165 | 28673 ft | 462 kts | 44° |
| 2026-05-07 14:21 | 0.15843 | 101.19338 | 28982 ft | 462 kts | 44° |
| 2026-05-07 14:21 | 0.18399 | 101.21256 | 29174 ft | 465 kts | 29° |
| 2026-05-07 14:22 | 0.21473 | 101.22410 | 29322 ft | 471 kts | 15° |
| 2026-05-07 14:22 | 0.24695 | 101.22981 | 29427 ft | 475 kts | 11° |
| 2026-05-07 14:22 | 0.27982 | 101.23497 | 29511 ft | 479 kts | 11° |
| 2026-05-07 14:23 | 0.34646 | 101.24562 | 29663 ft | 484 kts | 11° |
| 2026-05-07 14:23 | 0.41313 | 101.25672 | 29850 ft | 487 kts | 11° |
| 2026-05-07 14:23 | 0.44695 | 101.26244 | 30019 ft | 487 kts | 11° |
| 2026-05-07 14:24 | 0.48034 | 101.26813 | 30206 ft | 486 kts | 11° |
| 2026-05-07 14:24 | 0.51341 | 101.27377 | 30385 ft | 485 kts | 11° |
| 2026-05-07 14:24 | 0.54680 | 101.27948 | 30548 ft | 484 kts | 11° |
| 2026-05-07 14:24 | 0.58031 | 101.28522 | 30711 ft | 484 kts | 11° |
| 2026-05-07 14:25 | 0.61359 | 101.29092 | 30810 ft | 484 kts | 11° |
| 2026-05-07 14:25 | 0.68009 | 101.30231 | 30825 ft | 484 kts | 11° |
| 2026-05-07 14:26 | 0.74638 | 101.31366 | 30833 ft | 484 kts | 11° |
| 2026-05-07 14:26 | 0.81307 | 101.32506 | 30838 ft | 484 kts | 11° |
| 2026-05-07 14:27 | 0.87972 | 101.33648 | 30837 ft | 485 kts | 11° |
| 2026-05-07 14:27 | 0.94648 | 101.34792 | 30835 ft | 484 kts | 11° |
| 2026-05-07 14:28 | 1.01268 | 101.35925 | 30834 ft | 484 kts | 11° |
| 2026-05-07 14:28 | 1.07956 | 101.37070 | 30747 ft | 484 kts | 11° |
| 2026-05-07 14:28 | 1.11254 | 101.37633 | 30381 ft | 484 kts | 11° |
| 2026-05-07 14:29 | 1.14610 | 101.38205 | 29883 ft | 485 kts | 11° |
| 2026-05-07 14:29 | 1.17966 | 101.38776 | 29307 ft | 486 kts | 11° |
| 2026-05-07 14:29 | 1.21288 | 101.39342 | 28735 ft | 487 kts | 11° |
| 2026-05-07 14:29 | 1.24667 | 101.39919 | 28165 ft | 489 kts | 11° |
| 2026-05-07 14:30 | 1.28008 | 101.40491 | 27610 ft | 483 kts | 11° |
| 2026-05-07 14:30 | 1.31252 | 101.41045 | 27064 ft | 473 kts | 11° |
| 2026-05-07 14:30 | 1.34511 | 101.41602 | 26507 ft | 465 kts | 12° |
| 2026-05-07 14:30 | 1.37681 | 101.42143 | 25954 ft | 458 kts | 12° |
| 2026-05-07 14:31 | 1.40784 | 101.42676 | 25424 ft | 453 kts | 12° |
| 2026-05-07 14:31 | 1.43875 | 101.43207 | 24980 ft | 448 kts | 12° |
| 2026-05-07 14:31 | 1.46946 | 101.43732 | 24545 ft | 438 kts | 12° |
| 2026-05-07 14:31 | 1.49935 | 101.44243 | 24112 ft | 430 kts | 12° |
| 2026-05-07 14:32 | 1.52849 | 101.44742 | 23681 ft | 421 kts | 12° |
| 2026-05-07 14:32 | 1.55704 | 101.45232 | 23257 ft | 414 kts | 12° |
| 2026-05-07 14:32 | 1.58543 | 101.45718 | 22833 ft | 408 kts | 12° |
| 2026-05-07 14:32 | 1.61336 | 101.46197 | 22410 ft | 406 kts | 12° |
| 2026-05-07 14:33 | 1.64113 | 101.46676 | 21994 ft | 404 kts | 12° |
| 2026-05-07 14:33 | 1.66892 | 101.47154 | 21586 ft | 401 kts | 12° |
| 2026-05-07 14:33 | 1.69636 | 101.47624 | 21177 ft | 398 kts | 12° |
| 2026-05-07 14:33 | 1.72373 | 101.48094 | 20767 ft | 396 kts | 12° |
| 2026-05-07 14:34 | 1.75063 | 101.48555 | 20362 ft | 393 kts | 12° |
| 2026-05-07 14:34 | 1.77775 | 101.49020 | 19944 ft | 389 kts | 12° |
| 2026-05-07 14:34 | 1.80405 | 101.49471 | 19537 ft | 383 kts | 12° |
| 2026-05-07 14:34 | 1.83035 | 101.49921 | 19112 ft | 377 kts | 12° |
| 2026-05-07 14:35 | 1.85598 | 101.50359 | 18701 ft | 372 kts | 13° |
| 2026-05-07 14:35 | 1.88134 | 101.50794 | 18353 ft | 365 kts | 13° |
| 2026-05-07 14:35 | 1.90627 | 101.51220 | 18036 ft | 357 kts | 13° |
| 2026-05-07 14:35 | 1.93060 | 101.51637 | 17713 ft | 356 kts | 13° |
| 2026-05-07 14:36 | 1.95507 | 101.52058 | 17379 ft | 354 kts | 13° |
| 2026-05-07 14:36 | 1.97925 | 101.52473 | 17050 ft | 353 kts | 13° |
| 2026-05-07 14:36 | 2.00378 | 101.52896 | 16732 ft | 351 kts | 12° |
| 2026-05-07 14:36 | 2.02767 | 101.53306 | 16420 ft | 350 kts | 12° |
| 2026-05-07 14:37 | 2.05171 | 101.53719 | 16094 ft | 350 kts | 12° |
| 2026-05-07 14:37 | 2.09996 | 101.54545 | 15814 ft | 348 kts | 12° |
| 2026-05-07 14:37 | 2.12393 | 101.54962 | 15817 ft | 348 kts | 14° |
| 2026-05-07 14:38 | 2.14644 | 101.55788 | 15813 ft | 342 kts | 32° |
| 2026-05-07 14:38 | 2.16487 | 101.57214 | 15825 ft | 332 kts | 44° |
| 2026-05-07 14:38 | 2.18160 | 101.58716 | 15789 ft | 316 kts | 44° |
| 2026-05-07 14:38 | 2.19776 | 101.60178 | 15283 ft | 316 kts | 44° |
| 2026-05-07 14:39 | 2.21397 | 101.61646 | 14554 ft | 313 kts | 44° |
| 2026-05-07 14:39 | 2.22993 | 101.63091 | 13819 ft | 310 kts | 44° |
| 2026-05-07 14:39 | 2.24590 | 101.64536 | 13085 ft | 307 kts | 44° |
| 2026-05-07 14:39 | 2.26166 | 101.65965 | 12353 ft | 305 kts | 44° |
| 2026-05-07 14:40 | 2.27727 | 101.67391 | 11619 ft | 303 kts | 44° |
| 2026-05-07 14:40 | 2.29271 | 101.68799 | 10891 ft | 301 kts | 43° |
| 2026-05-07 14:40 | 2.30818 | 101.70204 | 10150 ft | 299 kts | 43° |
| 2026-05-07 14:40 | 2.32354 | 101.71596 | 9408 ft | 298 kts | 43° |
| 2026-05-07 14:41 | 2.33883 | 101.72979 | 8669 ft | 296 kts | 43° |
| 2026-05-07 14:41 | 2.35389 | 101.74338 | 7956 ft | 293 kts | 43° |
| 2026-05-07 14:41 | 2.36878 | 101.75683 | 7339 ft | 287 kts | 43° |
| 2026-05-07 14:41 | 2.38346 | 101.77007 | 6721 ft | 280 kts | 43° |
| 2026-05-07 14:42 | 2.39764 | 101.78288 | 6100 ft | 274 kts | 43° |
| 2026-05-07 14:42 | 2.41102 | 101.79629 | 5469 ft | 269 kts | 50° |
| 2026-05-07 14:42 | 2.42218 | 101.81101 | 4895 ft | 262 kts | 56° |
| 2026-05-07 14:42 | 2.43222 | 101.82584 | 4413 ft | 253 kts | 57° |
| 2026-05-07 14:43 | 2.44199 | 101.84007 | 3938 ft | 247 kts | 51° |
| 2026-05-07 14:43 | 2.45539 | 101.85018 | 3454 ft | 244 kts | 20° |
| 2026-05-07 14:43 | 2.47180 | 101.85216 | 3232 ft | 234 kts | 353° |
| 2026-05-07 14:43 | 2.48703 | 101.84674 | 3083 ft | 228 kts | 329° |
| 2026-05-07 14:44 | 2.50026 | 101.83800 | 3003 ft | 226 kts | 327° |
| 2026-05-07 14:44 | 2.51325 | 101.82909 | 3003 ft | 227 kts | 327° |
| 2026-05-07 14:44 | 2.52596 | 101.82042 | 2974 ft | 212 kts | 327° |
| 2026-05-07 14:44 | 2.53811 | 101.81222 | 3089 ft | 213 kts | 328° |
| 2026-05-07 14:45 | 2.55042 | 101.80394 | 3028 ft | 211 kts | 327° |
| 2026-05-07 14:45 | 2.56248 | 101.79566 | 2997 ft | 207 kts | 327° |
| 2026-05-07 14:45 | 2.57428 | 101.78759 | 2975 ft | 207 kts | 327° |
| 2026-05-07 14:45 | 2.58634 | 101.77940 | 2804 ft | 208 kts | 328° |
| 2026-05-07 14:46 | 2.59820 | 101.77140 | 2538 ft | 204 kts | 328° |
| 2026-05-07 14:46 | 2.60985 | 101.76357 | 2276 ft | 199 kts | 327° |
| 2026-05-07 14:46 | 2.62115 | 101.75597 | 2049 ft | 191 kts | 328° |
| 2026-05-07 14:46 | 2.63214 | 101.74860 | 1842 ft | 186 kts | 328° |
| 2026-05-07 14:47 | 2.64269 | 101.74153 | 1600 ft | 181 kts | 328° |
| 2026-05-07 14:47 | 2.65313 | 101.73453 | 1356 ft | 180 kts | 328° |
| 2026-05-07 14:47 | 2.66349 | 101.72759 | 1126 ft | 178 kts | 327° |
| 2026-05-07 14:47 | 2.67358 | 101.72080 | 999 ft | 171 kts | 328° |
| 2026-05-07 14:48 | 2.68380 | 101.71399 | 736 ft | 175 kts | 327° |
| 2026-05-07 14:48 | 2.69396 | 101.70693 | 466 ft | 179 kts | 328° |
| 2026-05-07 14:48 | 2.70427 | 101.70019 | 225 ft | 175 kts | 328° |
| 2026-05-07 14:48 | 2.71399 | 101.69374 | 88 ft | 157 kts | 327° |
| 2026-05-07 14:49 | 2.72155 | 101.68868 | 74 ft | 92 kts | 325° |
| 2026-05-07 14:49 | 2.72631 | 101.68548 | 75 ft | 66 kts | 326° |
| 2026-05-07 14:49 | 2.72890 | 101.68415 | 75 ft | 28 kts | 344° |
| 2026-05-07 14:49 | 2.72969 | 101.68401 | 74 ft | 4 kts | 353° |
| 2026-05-07 14:50 | 2.72992 | 101.68398 | 74 ft | 2 kts | 353° |
| 2026-05-07 14:50 | 2.73004 | 101.68396 | 74 ft | 0 kts | 353° |
| 2026-05-07 14:50 | 2.73006 | 101.68396 | 74 ft | 0 kts | 353° |
| 2026-05-07 14:50 | 2.73037 | 101.68392 | 74 ft | 9 kts | 353° |
| 2026-05-07 14:51 | 2.73129 | 101.68381 | 74 ft | 15 kts | 352° |
| 2026-05-07 14:51 | 2.73232 | 101.68349 | 74 ft | 16 kts | 324° |
| 2026-05-07 14:51 | 2.73327 | 101.68285 | 74 ft | 16 kts | 326° |
| 2026-05-07 14:51 | 2.73422 | 101.68220 | 75 ft | 16 kts | 326° |
| 2026-05-07 14:52 | 2.73520 | 101.68153 | 75 ft | 17 kts | 326° |
| 2026-05-07 14:52 | 2.73615 | 101.68090 | 74 ft | 9 kts | 327° |
| 2026-05-07 14:52 | 2.73681 | 101.68114 | 74 ft | 16 kts | 60° |
| 2026-05-07 14:52 | 2.73742 | 101.68209 | 75 ft | 16 kts | 55° |
| 2026-05-07 14:53 | 2.73811 | 101.68310 | 75 ft | 17 kts | 55° |
| 2026-05-07 14:53 | 2.73880 | 101.68412 | 75 ft | 14 kts | 56° |
| 2026-05-07 14:53 | 2.73917 | 101.68426 | 75 ft | 6 kts | 317° |
| 2026-05-07 14:53 | 2.73956 | 101.68400 | 75 ft | 7 kts | 324° |
| 2026-05-07 14:54 | 2.73974 | 101.68388 | 75 ft | 0 kts | 325° |
| 2026-05-07 14:54 | 2.73975 | 101.68387 | 75 ft | 0 kts | 325° |